Las Vegas, Nevada
Traffic Map
Current Weather Conditions
Las Vegas, Nevada
Broken Clouds
Broken Clouds
96°
Feels Like: 96°
Wind Chill: 96° Ceiling: 25000
Heat Index: 96° Visibility: 10mi
Dew Point: 51° Wind: 14mph
Humidity: 22% Direction: 180° (S)
Pressure: 29.79in Gusts: 0mph
Raw Report DataKLAS 250656Z 18012KT 10SM BKN250 36/11 A2979 RMK AO2 PK WND 18026/0615 SLP053 T03560106
Traffic Incident Summary
Active as of:
Severity:
Category:
InformationThere was an issue retrieving the traffic information for this location. Please try a different location or try again shortly.
Advertisements
Track Severe Weather on mobile